sensor_id;sensor_type;location;lat;lon;timestamp;temperature;humidity
22925;DHT22;11628;51.072;3.712;2023-06-24T00:00:59;20.10;99.90
22925;DHT22;11628;51.072;3.712;2023-06-24T00:03:24;20.20;99.90
22925;DHT22;11628;51.072;3.712;2023-06-24T00:05:50;20.10;99.90
22925;DHT22;11628;51.072;3.712;2023-06-24T00:08:16;20.00;99.90
22925;DHT22;11628;51.072;3.712;2023-06-24T00:10:48;19.90;99.90
22925;DHT22;11628;51.072;3.712;2023-06-24T00:13:17;19.90;99.90
22925;DHT22;11628;51.072;3.712;2023-06-24T00:15:43;19.80;99.90
22925;DHT22;11628;51.072;3.712;2023-06-24T00:18:12;19.70;99.90
22925;DHT22;11628;51.072;3.712;2023-06-24T00:20:38;19.70;99.90
22925;DHT22;11628;51.072;3.712;2023-06-24T00:23:05;19.70;99.90
22925;DHT22;11628;51.072;3.712;2023-06-24T00:25:31;19.70;99.90
22925;DHT22;11628;51.072;3.712;2023-06-24T00:27:58;19.70;99.90
22925;DHT22;11628;51.072;3.712;2023-06-24T00:30:23;19.70;99.90
22925;DHT22;11628;51.072;3.712;2023-06-24T00:32:49;19.70;99.90
22925;DHT22;11628;51.072;3.712;2023-06-24T00:35:15;19.70;99.90
22925;DHT22;11628;51.072;3.712;2023-06-24T00:37:41;19.70;99.90
22925;DHT22;11628;51.072;3.712;2023-06-24T00:40:08;19.60;99.90
22925;DHT22;11628;51.072;3.712;2023-06-24T00:42:36;19.60;99.90
22925;DHT22;11628;51.072;3.712;2023-06-24T00:45:03;19.50;99.90
22925;DHT22;11628;51.072;3.712;2023-06-24T00:47:31;19.50;99.90
22925;DHT22;11628;51.072;3.712;2023-06-24T00:49:57;19.40;99.90
22925;DHT22;11628;51.072;3.712;2023-06-24T00:52:23;19.40;99.90
22925;DHT22;11628;51.072;3.712;2023-06-24T00:54:49;19.30;99.90
22925;DHT22;11628;51.072;3.712;2023-06-24T00:57:15;19.40;99.90
22925;DHT22;11628;51.072;3.712;2023-06-24T00:59:44;19.40;99.90
22925;DHT22;11628;51.072;3.712;2023-06-24T01:02:11;19.30;99.90
22925;DHT22;11628;51.072;3.712;2023-06-24T01:04:37;19.30;99.90
22925;DHT22;11628;51.072;3.712;2023-06-24T01:07:05;19.20;99.90
22925;DHT22;11628;51.072;3.712;2023-06-24T01:09:31;19.10;99.90
22925;DHT22;11628;51.072;3.712;2023-06-24T01:11:57;19.00;99.90
22925;DHT22;11628;51.072;3.712;2023-06-24T01:14:23;19.00;99.90
22925;DHT22;11628;51.072;3.712;2023-06-24T01:17:18;18.90;99.90
22925;DHT22;11628;51.072;3.712;2023-06-24T01:31:23;18.70;99.90
22925;DHT22;11628;51.072;3.712;2023-06-24T01:34:05;18.60;99.90
22925;DHT22;11628;51.072;3.712;2023-06-24T01:36:33;18.60;99.90
22925;DHT22;11628;51.072;3.712;2023-06-24T01:39:05;18.60;99.90
22925;DHT22;11628;51.072;3.712;2023-06-24T01:41:36;18.60;99.90
22925;DHT22;11628;51.072;3.712;2023-06-24T01:44:04;18.50;99.90
22925;DHT22;11628;51.072;3.712;2023-06-24T01:46:30;18.50;99.90
22925;DHT22;11628;51.072;3.712;2023-06-24T01:48:59;18.50;99.90
22925;DHT22;11628;51.072;3.712;2023-06-24T01:51:27;18.40;99.90
22925;DHT22;11628;51.072;3.712;2023-06-24T01:54:01;18.40;99.90
22925;DHT22;11628;51.072;3.712;2023-06-24T01:56:29;18.30;99.90
22925;DHT22;11628;51.072;3.712;2023-06-24T01:58:58;18.20;99.90
22925;DHT22;11628;51.072;3.712;2023-06-24T02:01:25;18.20;99.90
22925;DHT22;11628;51.072;3.712;2023-06-24T02:03:52;18.10;99.90
22925;DHT22;11628;51.072;3.712;2023-06-24T02:06:19;18.20;99.90
22925;DHT22;11628;51.072;3.712;2023-06-24T02:08:48;18.10;99.90
22925;DHT22;11628;51.072;3.712;2023-06-24T02:11:16;18.10;99.90
22925;DHT22;11628;51.072;3.712;2023-06-24T02:13:43;18.00;99.90
22925;DHT22;11628;51.072;3.712;2023-06-24T02:16:10;18.10;99.90
22925;DHT22;11628;51.072;3.712;2023-06-24T02:18:38;18.20;99.90
22925;DHT22;11628;51.072;3.712;2023-06-24T02:21:08;18.20;99.90
22925;DHT22;11628;51.072;3.712;2023-06-24T02:23:35;18.30;99.90
22925;DHT22;11628;51.072;3.712;2023-06-24T02:26:03;18.30;99.90
22925;DHT22;11628;51.072;3.712;2023-06-24T02:28:31;18.20;99.90
22925;DHT22;11628;51.072;3.712;2023-06-24T02:30:58;18.20;99.90
22925;DHT22;11628;51.072;3.712;2023-06-24T02:33:25;18.20;99.90
22925;DHT22;11628;51.072;3.712;2023-06-24T02:35:54;18.20;99.90
22925;DHT22;11628;51.072;3.712;2023-06-24T02:38:20;18.20;99.90
22925;DHT22;11628;51.072;3.712;2023-06-24T02:40:46;18.20;99.90
22925;DHT22;11628;51.072;3.712;2023-06-24T02:43:11;18.20;99.90
22925;DHT22;11628;51.072;3.712;2023-06-24T02:45:38;18.20;99.90
22925;DHT22;11628;51.072;3.712;2023-06-24T02:48:05;18.20;99.90
22925;DHT22;11628;51.072;3.712;2023-06-24T02:50:32;18.10;99.90
22925;DHT22;11628;51.072;3.712;2023-06-24T02:52:59;18.00;99.90
22925;DHT22;11628;51.072;3.712;2023-06-24T02:55:25;17.90;99.90
22925;DHT22;11628;51.072;3.712;2023-06-24T02:57:52;17.80;99.90
22925;DHT22;11628;51.072;3.712;2023-06-24T03:00:18;17.80;99.90
22925;DHT22;11628;51.072;3.712;2023-06-24T03:02:46;17.80;99.90
22925;DHT22;11628;51.072;3.712;2023-06-24T03:05:14;17.70;99.90
22925;DHT22;11628;51.072;3.712;2023-06-24T03:07:41;17.70;99.90
22925;DHT22;11628;51.072;3.712;2023-06-24T03:10:07;17.70;99.90
22925;DHT22;11628;51.072;3.712;2023-06-24T03:12:33;17.70;99.90
22925;DHT22;11628;51.072;3.712;2023-06-24T03:14:59;17.70;99.90
22925;DHT22;11628;51.072;3.712;2023-06-24T03:17:26;17.60;99.90
22925;DHT22;11628;51.072;3.712;2023-06-24T03:19:52;17.50;99.90
22925;DHT22;11628;51.072;3.712;2023-06-24T03:22:18;17.60;99.90
22925;DHT22;11628;51.072;3.712;2023-06-24T03:24:43;17.50;99.90
22925;DHT22;11628;51.072;3.712;2023-06-24T03:27:09;17.50;99.90
22925;DHT22;11628;51.072;3.712;2023-06-24T03:29:35;17.40;99.90
22925;DHT22;11628;51.072;3.712;2023-06-24T03:32:01;17.40;99.90
22925;DHT22;11628;51.072;3.712;2023-06-24T03:34:27;17.40;99.90
22925;DHT22;11628;51.072;3.712;2023-06-24T03:36:53;17.30;99.90
22925;DHT22;11628;51.072;3.712;2023-06-24T03:39:22;17.30;99.90
22925;DHT22;11628;51.072;3.712;2023-06-24T03:41:48;17.30;99.90
22925;DHT22;11628;51.072;3.712;2023-06-24T03:44:14;17.40;99.90
22925;DHT22;11628;51.072;3.712;2023-06-24T03:46:39;17.40;99.90
22925;DHT22;11628;51.072;3.712;2023-06-24T03:49:05;17.40;99.90
22925;DHT22;11628;51.072;3.712;2023-06-24T03:51:31;17.40;99.90
22925;DHT22;11628;51.072;3.712;2023-06-24T03:53:57;17.40;99.90
22925;DHT22;11628;51.072;3.712;2023-06-24T03:56:23;17.50;99.90
22925;DHT22;11628;51.072;3.712;2023-06-24T03:58:48;17.40;99.90
22925;DHT22;11628;51.072;3.712;2023-06-24T04:01:14;17.30;99.90
22925;DHT22;11628;51.072;3.712;2023-06-24T04:03:40;17.40;99.90
22925;DHT22;11628;51.072;3.712;2023-06-24T04:06:05;17.40;99.90
22925;DHT22;11628;51.072;3.712;2023-06-24T04:08:31;17.30;99.90
22925;DHT22;11628;51.072;3.712;2023-06-24T04:10:57;17.20;99.90
22925;DHT22;11628;51.072;3.712;2023-06-24T04:13:28;17.30;99.90
22925;DHT22;11628;51.072;3.712;2023-06-24T04:15:54;17.30;99.90
22925;DHT22;11628;51.072;3.712;2023-06-24T04:18:20;17.40;99.90
22925;DHT22;11628;51.072;3.712;2023-06-24T04:20:46;17.50;99.90
22925;DHT22;11628;51.072;3.712;2023-06-24T04:23:12;17.60;99.90
22925;DHT22;11628;51.072;3.712;2023-06-24T04:25:40;17.70;99.90
22925;DHT22;11628;51.072;3.712;2023-06-24T04:28:06;17.60;99.90
22925;DHT22;11628;51.072;3.712;2023-06-24T04:30:32;17.50;99.90
22925;DHT22;11628;51.072;3.712;2023-06-24T04:33:00;17.40;99.90
22925;DHT22;11628;51.072;3.712;2023-06-24T04:35:26;17.30;99.90
22925;DHT22;11628;51.072;3.712;2023-06-24T04:37:52;17.30;99.90
22925;DHT22;11628;51.072;3.712;2023-06-24T04:40:18;17.20;99.90
22925;DHT22;11628;51.072;3.712;2023-06-24T04:42:45;17.30;99.90
22925;DHT22;11628;51.072;3.712;2023-06-24T04:45:12;17.20;99.90
22925;DHT22;11628;51.072;3.712;2023-06-24T04:47:38;17.30;99.90
22925;DHT22;11628;51.072;3.712;2023-06-24T04:50:04;17.30;99.90
22925;DHT22;11628;51.072;3.712;2023-06-24T04:52:30;17.40;99.90
22925;DHT22;11628;51.072;3.712;2023-06-24T04:54:55;17.40;99.90
22925;DHT22;11628;51.072;3.712;2023-06-24T04:57:28;17.50;99.90
22925;DHT22;11628;51.072;3.712;2023-06-24T04:59:54;17.60;99.90
22925;DHT22;11628;51.072;3.712;2023-06-24T05:02:20;17.80;99.90
22925;DHT22;11628;51.072;3.712;2023-06-24T05:04:46;17.80;99.90
22925;DHT22;11628;51.072;3.712;2023-06-24T05:07:12;17.80;99.90
22925;DHT22;11628;51.072;3.712;2023-06-24T05:09:37;17.90;99.90
22925;DHT22;11628;51.072;3.712;2023-06-24T05:12:07;17.90;99.90
22925;DHT22;11628;51.072;3.712;2023-06-24T05:14:34;17.90;99.90
22925;DHT22;11628;51.072;3.712;2023-06-24T05:17:00;17.80;99.90
22925;DHT22;11628;51.072;3.712;2023-06-24T05:19:26;17.80;99.90
22925;DHT22;11628;51.072;3.712;2023-06-24T05:21:52;17.90;99.90
22925;DHT22;11628;51.072;3.712;2023-06-24T05:24:18;18.00;99.90
22925;DHT22;11628;51.072;3.712;2023-06-24T05:26:46;18.20;99.90
22925;DHT22;11628;51.072;3.712;2023-06-24T05:29:12;18.40;99.90
22925;DHT22;11628;51.072;3.712;2023-06-24T05:31:39;18.60;99.90
22925;DHT22;11628;51.072;3.712;2023-06-24T05:34:05;18.70;99.90
22925;DHT22;11628;51.072;3.712;2023-06-24T05:36:31;18.80;99.90
22925;DHT22;11628;51.072;3.712;2023-06-24T05:38:56;18.90;99.90
22925;DHT22;11628;51.072;3.712;2023-06-24T05:41:23;18.80;99.90
22925;DHT22;11628;51.072;3.712;2023-06-24T05:43:49;18.80;99.90
22925;DHT22;11628;51.072;3.712;2023-06-24T05:46:15;18.60;99.90
22925;DHT22;11628;51.072;3.712;2023-06-24T05:48:40;18.70;99.90
22925;DHT22;11628;51.072;3.712;2023-06-24T05:51:07;18.70;99.90
22925;DHT22;11628;51.072;3.712;2023-06-24T05:53:34;18.70;99.90
22925;DHT22;11628;51.072;3.712;2023-06-24T05:56:00;18.80;99.90
22925;DHT22;11628;51.072;3.712;2023-06-24T05:58:25;19.10;99.90
22925;DHT22;11628;51.072;3.712;2023-06-24T06:00:51;19.10;99.90
22925;DHT22;11628;51.072;3.712;2023-06-24T06:03:17;19.20;99.90
22925;DHT22;11628;51.072;3.712;2023-06-24T06:05:43;19.40;99.90
22925;DHT22;11628;51.072;3.712;2023-06-24T06:08:08;19.50;99.90
22925;DHT22;11628;51.072;3.712;2023-06-24T06:10:34;19.60;99.90
22925;DHT22;11628;51.072;3.712;2023-06-24T06:13:00;19.80;99.90
22925;DHT22;11628;51.072;3.712;2023-06-24T06:15:25;19.90;99.90
22925;DHT22;11628;51.072;3.712;2023-06-24T06:17:52;19.90;99.90
22925;DHT22;11628;51.072;3.712;2023-06-24T06:20:18;20.00;99.90
22925;DHT22;11628;51.072;3.712;2023-06-24T06:22:44;20.00;99.90
22925;DHT22;11628;51.072;3.712;2023-06-24T06:25:09;20.00;99.90
22925;DHT22;11628;51.072;3.712;2023-06-24T06:27:35;20.00;99.90
22925;DHT22;11628;51.072;3.712;2023-06-24T06:30:01;19.90;99.90
22925;DHT22;11628;51.072;3.712;2023-06-24T06:32:26;19.80;99.90
22925;DHT22;11628;51.072;3.712;2023-06-24T06:34:52;20.00;99.90
22925;DHT22;11628;51.072;3.712;2023-06-24T06:37:18;20.00;99.90
22925;DHT22;11628;51.072;3.712;2023-06-24T06:39:43;20.10;99.90
22925;DHT22;11628;51.072;3.712;2023-06-24T06:42:09;20.10;99.90
22925;DHT22;11628;51.072;3.712;2023-06-24T06:44:35;20.40;99.90
22925;DHT22;11628;51.072;3.712;2023-06-24T06:47:00;20.50;99.90
22925;DHT22;11628;51.072;3.712;2023-06-24T06:49:26;20.60;99.90
22925;DHT22;11628;51.072;3.712;2023-06-24T06:51:54;20.60;99.90
22925;DHT22;11628;51.072;3.712;2023-06-24T06:54:20;20.70;99.90
22925;DHT22;11628;51.072;3.712;2023-06-24T06:56:45;20.90;99.90
22925;DHT22;11628;51.072;3.712;2023-06-24T06:59:11;21.10;99.90
22925;DHT22;11628;51.072;3.712;2023-06-24T07:01:37;21.10;99.90
22925;DHT22;11628;51.072;3.712;2023-06-24T07:04:03;21.10;99.90
22925;DHT22;11628;51.072;3.712;2023-06-24T07:06:29;21.30;99.90
22925;DHT22;11628;51.072;3.712;2023-06-24T07:08:55;21.30;99.90
22925;DHT22;11628;51.072;3.712;2023-06-24T07:11:20;21.00;99.90
22925;DHT22;11628;51.072;3.712;2023-06-24T07:13:46;21.00;99.90
22925;DHT22;11628;51.072;3.712;2023-06-24T07:16:12;21.20;99.90
22925;DHT22;11628;51.072;3.712;2023-06-24T07:18:37;21.30;99.90
22925;DHT22;11628;51.072;3.712;2023-06-24T07:21:03;21.20;99.90
22925;DHT22;11628;51.072;3.712;2023-06-24T07:23:29;21.00;99.90
22925;DHT22;11628;51.072;3.712;2023-06-24T07:25:55;20.60;99.90
22925;DHT22;11628;51.072;3.712;2023-06-24T07:28:20;21.00;99.90
22925;DHT22;11628;51.072;3.712;2023-06-24T07:30:46;21.40;99.90
22925;DHT22;11628;51.072;3.712;2023-06-24T07:33:12;21.80;99.90
22925;DHT22;11628;51.072;3.712;2023-06-24T07:35:37;21.70;99.90
22925;DHT22;11628;51.072;3.712;2023-06-24T07:38:03;21.30;99.90
22925;DHT22;11628;51.072;3.712;2023-06-24T07:40:29;21.10;99.90
22925;DHT22;11628;51.072;3.712;2023-06-24T07:42:54;21.10;99.90
22925;DHT22;11628;51.072;3.712;2023-06-24T07:45:20;21.10;99.90
22925;DHT22;11628;51.072;3.712;2023-06-24T07:47:46;21.00;99.90
22925;DHT22;11628;51.072;3.712;2023-06-24T07:50:12;21.30;99.90
22925;DHT22;11628;51.072;3.712;2023-06-24T07:52:38;21.40;99.90
22925;DHT22;11628;51.072;3.712;2023-06-24T07:55:04;21.20;99.90
22925;DHT22;11628;51.072;3.712;2023-06-24T07:57:30;21.50;99.90
22925;DHT22;11628;51.072;3.712;2023-06-24T07:59:56;21.60;99.90
22925;DHT22;11628;51.072;3.712;2023-06-24T08:02:22;21.60;99.90
22925;DHT22;11628;51.072;3.712;2023-06-24T08:04:50;21.40;99.90
22925;DHT22;11628;51.072;3.712;2023-06-24T08:07:16;21.40;99.90
22925;DHT22;11628;51.072;3.712;2023-06-24T08:09:41;21.70;99.90
22925;DHT22;11628;51.072;3.712;2023-06-24T08:12:07;22.10;99.90
22925;DHT22;11628;51.072;3.712;2023-06-24T08:14:33;22.50;99.90
22925;DHT22;11628;51.072;3.712;2023-06-24T08:16:59;22.70;99.90
22925;DHT22;11628;51.072;3.712;2023-06-24T08:19:24;22.40;99.90
22925;DHT22;11628;51.072;3.712;2023-06-24T08:21:50;22.30;99.90
22925;DHT22;11628;51.072;3.712;2023-06-24T08:24:16;22.20;99.90
22925;DHT22;11628;51.072;3.712;2023-06-24T08:26:41;22.00;99.90
22925;DHT22;11628;51.072;3.712;2023-06-24T08:29:07;22.10;99.90
22925;DHT22;11628;51.072;3.712;2023-06-24T08:31:33;22.30;99.90
22925;DHT22;11628;51.072;3.712;2023-06-24T08:33:59;22.70;99.90
22925;DHT22;11628;51.072;3.712;2023-06-24T08:36:27;22.70;99.90
22925;DHT22;11628;51.072;3.712;2023-06-24T08:38:54;22.80;99.90
22925;DHT22;11628;51.072;3.712;2023-06-24T08:41:20;23.00;99.90
22925;DHT22;11628;51.072;3.712;2023-06-24T08:43:47;22.90;99.90
22925;DHT22;11628;51.072;3.712;2023-06-24T08:46:15;23.10;99.90
22925;DHT22;11628;51.072;3.712;2023-06-24T08:48:42;23.00;99.90
22925;DHT22;11628;51.072;3.712;2023-06-24T08:51:11;22.90;99.90
22925;DHT22;11628;51.072;3.712;2023-06-24T08:53:38;22.80;99.90
22925;DHT22;11628;51.072;3.712;2023-06-24T08:56:07;23.10;99.90
22925;DHT22;11628;51.072;3.712;2023-06-24T08:58:33;23.10;99.90
22925;DHT22;11628;51.072;3.712;2023-06-24T09:01:00;23.00;99.90
22925;DHT22;11628;51.072;3.712;2023-06-24T09:03:26;23.40;99.90
22925;DHT22;11628;51.072;3.712;2023-06-24T09:05:51;23.40;99.90
22925;DHT22;11628;51.072;3.712;2023-06-24T09:08:17;23.20;99.90
22925;DHT22;11628;51.072;3.712;2023-06-24T09:10:43;23.20;99.90
22925;DHT22;11628;51.072;3.712;2023-06-24T09:13:09;23.20;99.90
22925;DHT22;11628;51.072;3.712;2023-06-24T09:15:36;23.30;99.90
22925;DHT22;11628;51.072;3.712;2023-06-24T09:18:03;23.20;99.90
22925;DHT22;11628;51.072;3.712;2023-06-24T09:20:33;23.20;99.90
22925;DHT22;11628;51.072;3.712;2023-06-24T09:23:04;23.30;99.90
22925;DHT22;11628;51.072;3.712;2023-06-24T09:25:31;23.60;99.90
22925;DHT22;11628;51.072;3.712;2023-06-24T09:28:00;24.80;99.90
22925;DHT22;11628;51.072;3.712;2023-06-24T09:30:26;26.40;99.90
22925;DHT22;11628;51.072;3.712;2023-06-24T09:32:53;28.10;99.90
22925;DHT22;11628;51.072;3.712;2023-06-24T09:35:22;29.40;99.90
22925;DHT22;11628;51.072;3.712;2023-06-24T09:37:58;30.10;99.10
22925;DHT22;11628;51.072;3.712;2023-06-24T09:40:27;30.40;96.20
22925;DHT22;11628;51.072;3.712;2023-06-24T09:42:57;31.10;94.90
22925;DHT22;11628;51.072;3.712;2023-06-24T09:45:28;33.50;92.80
22925;DHT22;11628;51.072;3.712;2023-06-24T09:47:55;35.50;90.70
22925;DHT22;11628;51.072;3.712;2023-06-24T09:50:22;35.00;86.50
22925;DHT22;11628;51.072;3.712;2023-06-24T09:52:49;34.40;87.10
22925;DHT22;11628;51.072;3.712;2023-06-24T09:55:16;33.40;88.20
22925;DHT22;11628;51.072;3.712;2023-06-24T09:57:45;33.00;89.80
22925;DHT22;11628;51.072;3.712;2023-06-24T10:00:14;33.60;89.10
22925;DHT22;11628;51.072;3.712;2023-06-24T10:02:44;37.90;83.70
22925;DHT22;11628;51.072;3.712;2023-06-24T10:05:14;37.90;79.10
22925;DHT22;11628;51.072;3.712;2023-06-24T10:07:40;40.90;74.80
22925;DHT22;11628;51.072;3.712;2023-06-24T10:10:07;43.90;67.70
22925;DHT22;11628;51.072;3.712;2023-06-24T10:12:37;45.10;61.00
22925;DHT22;11628;51.072;3.712;2023-06-24T10:15:04;42.20;60.10
22925;DHT22;11628;51.072;3.712;2023-06-24T10:17:30;41.40;60.90
22925;DHT22;11628;51.072;3.712;2023-06-24T10:19:56;43.60;59.00
22925;DHT22;11628;51.072;3.712;2023-06-24T10:22:30;45.70;56.30
22925;DHT22;11628;51.072;3.712;2023-06-24T10:25:00;45.70;55.40
22925;DHT22;11628;51.072;3.712;2023-06-24T10:27:25;47.60;53.20
22925;DHT22;11628;51.072;3.712;2023-06-24T10:29:53;49.20;51.70
22925;DHT22;11628;51.072;3.712;2023-06-24T10:32:22;49.60;50.10
22925;DHT22;11628;51.072;3.712;2023-06-24T10:34:56;50.30;49.10
22925;DHT22;11628;51.072;3.712;2023-06-24T10:37:32;47.90;50.30
22925;DHT22;11628;51.072;3.712;2023-06-24T10:40:02;49.40;49.40
22925;DHT22;11628;51.072;3.712;2023-06-24T10:42:39;50.30;49.00
22925;DHT22;11628;51.072;3.712;2023-06-24T10:47:39;47.70;49.50
22925;DHT22;11628;51.072;3.712;2023-06-24T10:50:06;48.80;48.10
22925;DHT22;11628;51.072;3.712;2023-06-24T10:52:35;46.20;48.30
22925;DHT22;11628;51.072;3.712;2023-06-24T10:55:03;47.60;48.70
22925;DHT22;11628;51.072;3.712;2023-06-24T10:57:29;47.90;48.30
22925;DHT22;11628;51.072;3.712;2023-06-24T10:59:55;48.80;47.90
22925;DHT22;11628;51.072;3.712;2023-06-24T11:02:22;49.50;46.20
22925;DHT22;11628;51.072;3.712;2023-06-24T11:04:50;45.80;47.70
22925;DHT22;11628;51.072;3.712;2023-06-24T11:07:20;45.10;49.60
22925;DHT22;11628;51.072;3.712;2023-06-24T11:09:53;47.70;48.60
22925;DHT22;11628;51.072;3.712;2023-06-24T11:12:22;47.50;46.30
22925;DHT22;11628;51.072;3.712;2023-06-24T11:14:48;44.40;49.50
22925;DHT22;11628;51.072;3.712;2023-06-24T11:17:14;43.60;49.80
22925;DHT22;11628;51.072;3.712;2023-06-24T11:19:40;45.50;49.00
22925;DHT22;11628;51.072;3.712;2023-06-24T11:22:07;47.70;47.20
22925;DHT22;11628;51.072;3.712;2023-06-24T11:24:34;48.50;45.80
22925;DHT22;11628;51.072;3.712;2023-06-24T11:27:00;49.00;45.40
22925;DHT22;11628;51.072;3.712;2023-06-24T11:29:29;47.20;45.40
22925;DHT22;11628;51.072;3.712;2023-06-24T11:31:58;43.70;49.30
22925;DHT22;11628;51.072;3.712;2023-06-24T11:34:23;42.00;51.50
22925;DHT22;11628;51.072;3.712;2023-06-24T11:36:49;41.20;51.50
22925;DHT22;11628;51.072;3.712;2023-06-24T11:39:24;42.60;50.30
22925;DHT22;11628;51.072;3.712;2023-06-24T11:41:51;44.00;48.00
22925;DHT22;11628;51.072;3.712;2023-06-24T11:44:21;45.70;48.30
22925;DHT22;11628;51.072;3.712;2023-06-24T11:46:49;44.20;50.00
22925;DHT22;11628;51.072;3.712;2023-06-24T11:49:15;41.40;52.40
22925;DHT22;11628;51.072;3.712;2023-06-24T11:51:50;43.50;51.50
22925;DHT22;11628;51.072;3.712;2023-06-24T11:54:20;45.00;49.90
22925;DHT22;11628;51.072;3.712;2023-06-24T11:56:52;46.60;49.30
22925;DHT22;11628;51.072;3.712;2023-06-24T11:59:19;47.70;47.90
22925;DHT22;11628;51.072;3.712;2023-06-24T12:01:56;48.90;46.80
22925;DHT22;11628;51.072;3.712;2023-06-24T12:04:30;48.30;46.80
22925;DHT22;11628;51.072;3.712;2023-06-24T12:06:57;46.30;47.30
22925;DHT22;11628;51.072;3.712;2023-06-24T12:09:23;45.60;48.80
22925;DHT22;11628;51.072;3.712;2023-06-24T12:11:49;45.70;48.80
22925;DHT22;11628;51.072;3.712;2023-06-24T12:14:15;44.20;50.10
22925;DHT22;11628;51.072;3.712;2023-06-24T12:16:41;45.20;50.30
22925;DHT22;11628;51.072;3.712;2023-06-24T12:19:07;47.20;48.80
22925;DHT22;11628;51.072;3.712;2023-06-24T12:21:33;47.10;47.70
22925;DHT22;11628;51.072;3.712;2023-06-24T12:23:59;43.50;49.90
22925;DHT22;11628;51.072;3.712;2023-06-24T12:26:25;41.50;52.10
22925;DHT22;11628;51.072;3.712;2023-06-24T12:28:55;43.90;50.80
22925;DHT22;11628;51.072;3.712;2023-06-24T12:31:24;45.30;49.30
22925;DHT22;11628;51.072;3.712;2023-06-24T12:33:51;47.50;47.40
22925;DHT22;11628;51.072;3.712;2023-06-24T12:36:18;49.20;45.90
22925;DHT22;11628;51.072;3.712;2023-06-24T12:38:44;50.40;45.20
22925;DHT22;11628;51.072;3.712;2023-06-24T12:41:10;51.30;44.40
22925;DHT22;11628;51.072;3.712;2023-06-24T12:43:35;52.00;43.60
22925;DHT22;11628;51.072;3.712;2023-06-24T12:46:01;52.20;43.30
22925;DHT22;11628;51.072;3.712;2023-06-24T12:48:27;51.70;43.60
22925;DHT22;11628;51.072;3.712;2023-06-24T12:50:53;49.70;44.20
22925;DHT22;11628;51.072;3.712;2023-06-24T12:53:20;48.80;44.00
22925;DHT22;11628;51.072;3.712;2023-06-24T12:55:45;47.80;43.80
22925;DHT22;11628;51.072;3.712;2023-06-24T12:58:13;48.60;44.50
22925;DHT22;11628;51.072;3.712;2023-06-24T13:00:39;49.10;45.40
22925;DHT22;11628;51.072;3.712;2023-06-24T13:03:04;49.80;44.90
22925;DHT22;11628;51.072;3.712;2023-06-24T13:05:30;50.60;44.70
22925;DHT22;11628;51.072;3.712;2023-06-24T13:07:56;51.50;43.90
22925;DHT22;11628;51.072;3.712;2023-06-24T13:10:22;50.00;43.80
22925;DHT22;11628;51.072;3.712;2023-06-24T13:12:47;48.60;45.30
22925;DHT22;11628;51.072;3.712;2023-06-24T13:15:13;47.70;45.80
22925;DHT22;11628;51.072;3.712;2023-06-24T13:17:39;48.20;45.60
22925;DHT22;11628;51.072;3.712;2023-06-24T13:20:06;48.40;45.50
22925;DHT22;11628;51.072;3.712;2023-06-24T13:22:32;49.40;44.90
22925;DHT22;11628;51.072;3.712;2023-06-24T13:24:57;50.50;44.00
22925;DHT22;11628;51.072;3.712;2023-06-24T13:27:23;51.00;43.50
22925;DHT22;11628;51.072;3.712;2023-06-24T13:29:49;49.00;44.60
22925;DHT22;11628;51.072;3.712;2023-06-24T13:32:14;48.60;44.80
22925;DHT22;11628;51.072;3.712;2023-06-24T13:34:40;48.90;44.60
22925;DHT22;11628;51.072;3.712;2023-06-24T13:37:06;49.40;44.30
22925;DHT22;11628;51.072;3.712;2023-06-24T13:39:32;47.00;45.10
22925;DHT22;11628;51.072;3.712;2023-06-24T13:41:58;47.30;45.40
22925;DHT22;11628;51.072;3.712;2023-06-24T13:44:24;48.00;44.50
22925;DHT22;11628;51.072;3.712;2023-06-24T13:46:50;48.60;44.00
22925;DHT22;11628;51.072;3.712;2023-06-24T13:49:18;49.20;43.90
22925;DHT22;11628;51.072;3.712;2023-06-24T13:51:44;49.80;43.10
22925;DHT22;11628;51.072;3.712;2023-06-24T13:54:10;47.50;44.00
22925;DHT22;11628;51.072;3.712;2023-06-24T13:56:35;46.80;44.90
22925;DHT22;11628;51.072;3.712;2023-06-24T13:59:01;45.80;45.10
22925;DHT22;11628;51.072;3.712;2023-06-24T14:01:28;46.60;44.20
22925;DHT22;11628;51.072;3.712;2023-06-24T14:03:57;47.60;43.40
22925;DHT22;11628;51.072;3.712;2023-06-24T14:06:23;48.60;42.30
22925;DHT22;11628;51.072;3.712;2023-06-24T14:08:50;48.90;42.80
22925;DHT22;11628;51.072;3.712;2023-06-24T14:11:16;48.80;42.80
22925;DHT22;11628;51.072;3.712;2023-06-24T14:13:42;47.70;42.70
22925;DHT22;11628;51.072;3.712;2023-06-24T14:16:09;48.00;43.50
22925;DHT22;11628;51.072;3.712;2023-06-24T14:18:35;48.20;42.80
22925;DHT22;11628;51.072;3.712;2023-06-24T14:21:03;48.20;43.10
22925;DHT22;11628;51.072;3.712;2023-06-24T14:23:30;48.60;42.80
22925;DHT22;11628;51.072;3.712;2023-06-24T14:25:56;48.00;43.10
22925;DHT22;11628;51.072;3.712;2023-06-24T14:28:23;47.60;43.40
22925;DHT22;11628;51.072;3.712;2023-06-24T14:30:48;47.20;43.60
22925;DHT22;11628;51.072;3.712;2023-06-24T14:33:14;46.90;43.70
22925;DHT22;11628;51.072;3.712;2023-06-24T14:35:41;47.30;43.60
22925;DHT22;11628;51.072;3.712;2023-06-24T14:38:07;47.40;43.70
22925;DHT22;11628;51.072;3.712;2023-06-24T14:40:33;46.20;44.60
22925;DHT22;11628;51.072;3.712;2023-06-24T14:42:59;46.20;45.00
22925;DHT22;11628;51.072;3.712;2023-06-24T14:45:26;46.10;45.10
22925;DHT22;11628;51.072;3.712;2023-06-24T14:47:52;45.50;45.20
22925;DHT22;11628;51.072;3.712;2023-06-24T14:50:18;45.70;45.10
22925;DHT22;11628;51.072;3.712;2023-06-24T14:52:44;44.80;45.50
22925;DHT22;11628;51.072;3.712;2023-06-24T14:55:09;42.40;47.10
22925;DHT22;11628;51.072;3.712;2023-06-24T14:57:36;40.40;48.40
22925;DHT22;11628;51.072;3.712;2023-06-24T15:00:03;39.50;49.90
22925;DHT22;11628;51.072;3.712;2023-06-24T15:02:29;40.10;49.00
22925;DHT22;11628;51.072;3.712;2023-06-24T15:04:55;40.50;49.20
22925;DHT22;11628;51.072;3.712;2023-06-24T15:07:20;41.80;47.70
22925;DHT22;11628;51.072;3.712;2023-06-24T15:09:46;43.00;45.50
22925;DHT22;11628;51.072;3.712;2023-06-24T15:12:12;41.20;46.90
22925;DHT22;11628;51.072;3.712;2023-06-24T15:14:37;40.80;47.60
22925;DHT22;11628;51.072;3.712;2023-06-24T15:17:03;41.60;46.80
22925;DHT22;11628;51.072;3.712;2023-06-24T15:19:29;42.50;46.40
22925;DHT22;11628;51.072;3.712;2023-06-24T15:21:55;42.90;46.00
22925;DHT22;11628;51.072;3.712;2023-06-24T15:24:21;40.50;47.40
22925;DHT22;11628;51.072;3.712;2023-06-24T15:26:47;39.80;48.10
22925;DHT22;11628;51.072;3.712;2023-06-24T15:29:12;38.60;49.30
22925;DHT22;11628;51.072;3.712;2023-06-24T15:31:38;37.80;49.90
22925;DHT22;11628;51.072;3.712;2023-06-24T15:34:04;37.40;51.20
22925;DHT22;11628;51.072;3.712;2023-06-24T15:36:30;37.50;50.70
22925;DHT22;11628;51.072;3.712;2023-06-24T15:38:56;38.80;49.40
22925;DHT22;11628;51.072;3.712;2023-06-24T15:41:23;39.50;48.60